Tonopah, Nevada Weather observations

Data are for observation ending at time listed.
 Day   Time    Ave.   Ave.  Ave.  Vector   Max.   Stn.    Total    Solar   Ave.  
  of    of     Air    Rel.  Wind   Wind    Wind   Baro.  Precip.   Rad.    Soil  
Year   Day     Temp.  Hum.  Speed  Dir.    Gust   Pres.                    Temp. 
2014   (PST)    F      %     mph   deg.    mph     mb.     in.     W/m2     F   
------------------------------------------------------------------------------
 204   18:10   88.5     8    7.5   256     16.1   814.2    0.00     159    87.1
 204   18:20   87.8     8    5.9   258     15.6   814.2    0.00     126    86.9
 204   18:30   87.5     8    5.1   273     12.6   814.2    0.00      80    86.8
 204   18:40   87.4     8    6.3   276     15.9   814.3    0.00      46    86.6
 204   18:50   86.8     9    4.4   271     11.0   814.3    0.00      12    86.4
 204   19:00   86.0     9    4.8   152     14.8   814.4    0.00      10    86.2
 204   19:10   84.9    10    5.4   170     11.5   814.4    0.00       5    86.1
 204   19:20   84.0    10    6.3   158     19.9   814.5    0.00       3    85.9
 204   19:30   83.6    10    7.5   153     21.5   814.5    0.00       0    85.7
 204   19:40   83.2    10    7.5   140     18.8   814.4    0.00       0    85.5
 204   19:50   83.4    10    7.5   150     20.7   814.4    0.00       0    85.3
 204   20:00   83.4    10    6.0   310     12.6   814.6    0.00       0    85.1
 204   20:10   81.8    11    7.5   265     18.3   815.0    0.00       0    84.9
 204   20:20   80.6    12    8.2   299     14.2   815.1    0.00       0    84.8
 204   20:30   79.3    12    5.4   303      9.1   815.3    0.00       0    84.6
 204   20:40   78.4    13    3.2   298      5.5   815.4    0.00       0    84.4
 204   20:50   77.5    13    2.1   280      5.4   815.5    0.00       0    84.2
 204   21:00   77.0    13    2.9   267      4.0   815.5    0.00       0    84.0
 204   21:10   76.8    13    3.2   277      6.4   815.6    0.00       0    83.9
 204   21:20   76.5    13    4.5   271      8.3   815.6    0.00       0    83.7
 204   21:30   76.7    13    7.5   290     12.1   815.6    0.00       0    83.5
 204   21:40   76.0    14    7.1   285     10.3   815.6    0.00       0    83.3
 204   21:50   75.9    14    6.0   284      9.3   815.6    0.00       0    83.1
 204   22:00   75.6    14    5.6   269      9.0   815.6    0.00       0    82.9
 204   22:10   74.9    14    7.0   263     12.0   815.7    0.00       0    82.7
 204   22:20   74.6    15    7.5   261     12.4   815.9    0.00       0    82.5
 204   22:30   74.2    15    7.1   282     11.8   815.9    0.00       0    82.3
 204   22:40   73.3    16    7.3   279     12.6   815.9    0.00       0    82.2
 204   22:50   72.8    17    6.7   285     10.4   815.9    0.00       0    82.0
 204   23:00   72.1    19    7.7   283     11.8   816.1    0.00       0    81.8
 204   23:10   71.5    20    8.1   294     13.8   816.1    0.00       0    81.7
 204   23:20   71.3    21    7.4   298     13.1   816.1    0.00       0    81.5
 204   23:30   70.4    22    6.4   290     10.5   816.1    0.00       0    81.3
 204   23:40   70.3    22    7.8   287     11.5   816.1    0.00       0    81.1
 204   23:50   69.6    23    6.8   293     10.2   816.1    0.00       0    81.0
 205    0:00   69.1    24    6.8   279      9.9   816.1    0.00       0    80.8
 205    0:10   69.0    24    7.0   282     11.3   816.0    0.00       0    80.7
 205    0:20   68.8    25    7.5   286     10.5   815.9    0.00       0    80.5
 205    0:30   68.5    25    7.3   273     10.2   815.8    0.00       0    80.3
 205    0:40   68.6    26    6.7   269     12.1   815.8    0.00       0    80.2
 205    0:50   68.3    26    5.2   249      8.6   815.8    0.00       0    80.0
 205    1:00   67.8    27    4.7   258      7.2   815.9    0.00       0    79.8
 205    1:10   67.4    27    5.3   279      8.8   815.8    0.00       0    79.7
 205    1:20   67.4    27    5.5   289     11.2   815.7    0.00       0    79.5
 205    1:30   67.0    28    4.7   253      7.9   815.7    0.00       0    79.4
 205    1:40   66.9    28    6.3   264     10.4   815.6    0.00       0    79.2
 205    1:50   66.2    29    4.6   258      7.8   815.6    0.00       0    79.1
 205    2:00   66.3    29    5.2   263      9.3   815.4    0.00       0    78.9
 205    2:10   65.9    30    4.4   242      7.4   815.4    0.00       0    78.7
 205    2:20   65.6    30    4.3   261      6.6   815.4    0.00       0    78.6
 205    2:30   65.1    30    4.7   275      7.3   815.4    0.00       0    78.4
 205    2:40   64.6    31    5.6   272      9.1   815.3    0.00       0    78.3
 205    2:50   64.3    31    4.8   278      6.6   815.3    0.00       0    78.1
 205    3:00   64.0    32    5.0   286      7.7   815.2    0.00       0    78.0
 205    3:10   64.3    31    5.6   295      9.5   815.2    0.00       0    77.8
 205    3:20   64.2    31    5.1   286      9.3   815.3    0.00       0    77.7
 205    3:30   64.1    31    5.8   280      9.9   815.3    0.00       0    77.5
 205    3:40   63.4    32    5.2   259      7.7   815.3    0.00       0    77.4
 205    3:50   62.8    33    5.1   289     10.2   815.3    0.00       0    77.2
 205    4:00   62.9    32    5.7   274      9.2   815.4    0.00       0    77.1
 205    4:10   62.2    33    5.3   270      7.7   815.5    0.00       0    76.9
 205    4:20   61.9    33    5.7   267      8.3   815.6    0.00       0    76.8
 205    4:30   61.4    34    5.9   269      8.8   815.7    0.00       0    76.7
 205    4:40   61.2    34    6.0   269      7.9   815.7    0.00       1    76.5
 205    4:50   61.5    33    5.9   276      7.5   815.7    0.00       4    76.4
 205    5:00   62.1    32    6.4   277      9.9   815.7    0.00       8    76.2
 205    5:10   62.1    32    6.5   274     10.7   815.8    0.00      11    76.1
 205    5:20   62.2    32    7.1   277     11.2   815.8    0.00      15    76.0
 205    5:30   62.4    32    7.4   276     10.8   815.8    0.00      18    75.8
 205    5:40   63.4    30    7.4   265     10.3   815.9    0.00      89    75.7
 205    5:50   64.6    29    6.8   264     11.1   815.9    0.00     137    75.6
 205    6:00   65.2    29    6.6   261      9.3   816.0    0.00     167    75.4
 205    6:10   65.6    28    7.0   266     11.2   816.0    0.00     199    75.3
 205    6:20   65.5    29    7.8   281     11.8   816.1    0.00     233    75.2
 205    6:30   65.9    29    8.1   290     14.5   816.2    0.00     267    75.2
 205    6:40   66.4    28    9.7   297     13.7   816.2    0.00     303    75.2
 205    6:50   66.9    28    9.2   297     14.6   816.2    0.00     339    75.1
 205    7:00   67.2    27    9.2   297     15.3   816.3    0.00     374    75.1
 205    7:10   67.6    27   10.1   294     17.0   816.4    0.00     409    75.2
 205    7:20   67.5    27    9.8   295     15.1   816.4    0.00     444    75.2
 205    7:30   68.1    26   10.2   301     18.0   816.4    0.00     481    75.3
 205    7:40   68.2    26   11.1   297     16.1   816.4    0.00     514    75.4
 205    7:50   68.9    26    8.9   301     14.5   816.4    0.00     549    75.5
 205    8:00   69.2    26    9.2   300     13.7   816.4    0.00     583    75.6
 205    8:10   69.8    25    9.6   293     15.1   816.3    0.00     615    75.8
 205    8:20   70.6    24    9.4   288     14.2   816.3    0.00     647    75.9
 205    8:30   71.4    24    8.8   301     13.6   816.3    0.00     679    76.1
 205    8:40   72.4    23    8.7   294     13.2   816.3    0.00     709    76.3
 205    8:50   72.9    22    9.5   289     13.4   816.3    0.00     738    76.6
 205    9:00   73.5    22    8.2   294     13.7   816.3    0.00     767    76.8
 205    9:10   74.5    21    7.5   295     12.9   816.4    0.00     794    77.1
 205    9:20   75.4    20    8.6   293     14.0   816.4    0.00     820    77.3
 205    9:30   75.9    20    8.4   296     13.3   816.3    0.00     844    77.6
 205    9:40   76.3    19    7.7   287     13.6   816.3    0.00     868    77.9
 205    9:50   77.1    18    6.8   297     13.1   816.2    0.00     891    78.2
 205   10:00   77.4    17    7.7   304     13.0   816.2    0.00     911    78.5
 205   10:10   78.3    17    6.2   307      9.9   816.1    0.00     931    78.8
 205   10:20   79.1    16    6.5   272     10.1   816.2    0.00     948    79.2
 205   10:30   78.8    16    7.2   292     12.4   816.1    0.00     963    79.6
 205   10:40   79.8    15    4.6   270     11.0   816.1    0.00     979    80.0
 205   10:50   80.9    14    3.3   299      8.0   816.0    0.00     990    80.4
 205   11:00   81.7    13    4.8   272     10.5   815.8    0.00    1000    80.9
 205   11:10   81.4    13    4.7   278     10.4   815.8    0.00    1010    81.3
 205   11:20   81.7    13    5.4   298     13.6   815.6    0.00    1017    81.8
 205   11:30   81.8    13    7.2   302     12.1   815.6    0.00    1022    82.3
 205   11:40   81.7    13    5.3   270     12.3   815.5    0.00    1025    82.9
 205   11:50   82.2    13    5.1   316     10.2   815.4    0.00    1026    83.4
 205   12:00   82.2    13    5.2   347      9.9   815.3    0.00    1027    83.9
 205   12:10   83.6    13    4.7   273     10.7   815.2    0.00    1027    84.4
 205   12:20   83.7    12    4.6   310     12.7   815.1    0.00    1025    84.9
 205   12:30   82.8    13    5.0    20     11.0   815.0    0.00    1019    85.4
 205   12:40   82.5    13    4.3    56      9.6   814.9    0.00    1016    85.9
 205   12:50   83.7    12    5.0   318     11.9   814.8    0.00    1010    86.4
 205   13:00   83.7    12    3.9   302      8.1   814.7    0.00    1002    86.8
 205   13:10   85.1    12    4.1    52      7.7   814.5    0.00     991    87.3
 205   13:20   85.8    11    2.8   105      8.6   814.5    0.00     980    87.7
 205   13:30   86.8    11    6.3   249     18.0   814.4    0.00     972    88.1
 205   13:40   86.5    10    4.2   258      9.6   814.3    0.00     958    88.4
 205   13:50   87.2    10    5.3   208     10.0   814.2    0.00     940    88.7
 205   14:00   86.6    10    4.5   191     10.5   814.1    0.00     921    89.0
 205   14:10   88.0    10    2.7   245      8.8   813.9    0.00     905    89.2
 205   14:20   88.4    10    4.7   264     11.3   813.7    0.00     885    89.5
 205   14:30   88.3    10    6.2   216     12.0   813.5    0.00     860    89.7
 205   14:40   87.9    10    5.7   175     10.2   813.3    0.00     835    89.8
 205   14:50   88.9     9    6.4   263     12.3   813.2    0.00     816    90.0
 205   15:00   88.8     9    4.9   306     10.3   813.0    0.00     788    90.2
 205   15:10   89.5     9    6.1   272     12.1   812.9    0.00     763    90.3
 205   15:20   89.5     9    3.7   247     12.6   812.7    0.00     733    90.4
 205   15:30   90.6     8    3.4   272      8.6   812.7    0.00     703    90.4
 205   15:40   90.8     8    4.4   251     12.6   812.5    0.00     672    90.4
 205   15:50   90.1     8    3.5   219      7.7   812.4    0.00     639    90.4
 205   16:00   89.4     8    4.5   195     15.7   812.3    0.00     608    90.4
 205   16:10   89.4     7    5.3   132     10.4   812.3    0.00     576    90.3
 205   16:20   90.0     7    7.8   173     16.2   812.2    0.00     542    90.2
 205   16:30   89.6     7    4.3   165     12.7   812.1    0.00     509    90.1
 205   16:40   90.0     7    4.6   217      9.6   811.9    0.00     474    89.9
 205   16:50   89.8     7    3.5   185      9.9   811.9    0.00     439    89.8
 205   17:00   89.4     7    4.3   185      9.5   811.9    0.00     405    89.6
 205   17:10   89.5     6    3.6   166     11.1   811.8    0.00     369    89.5
 205   17:20   89.6     7    4.5   181     14.5   811.8    0.00     334    89.3
 205   17:30   89.2     7    4.6   153     13.6   811.8    0.00     298    89.2
 205   17:40   89.2     7    7.3   174     15.6   811.8    0.00     262    89.0
 205   17:50   88.7     7    8.0   167     15.9   811.8    0.00     228    89.0
 205   18:00   88.3     7    4.9   190     11.3   811.8    0.00     194    88.8

Return to Tonopah, Nevada graphs page.


Western Regional Climate Center,wrcc@dri.edu